createdAt,value
2018-04-17T00:00:28.418Z,18.2
2018-04-17T00:01:29.815Z,18.2
2018-04-17T00:02:31.220Z,18.2
2018-04-17T00:03:32.547Z,18.2
2018-04-17T00:04:33.871Z,18.1
2018-04-17T00:05:35.175Z,18.1
2018-04-17T00:06:36.492Z,18.1
2018-04-17T00:07:37.874Z,18.1
2018-04-17T00:08:39.198Z,18.1
2018-04-17T00:09:40.529Z,18.1
2018-04-17T00:10:41.829Z,18.1
2018-04-17T00:11:43.157Z,18
2018-04-17T00:12:44.516Z,18
2018-04-17T00:13:45.880Z,18
2018-04-17T00:14:47.249Z,18
2018-04-17T00:15:48.620Z,17.9
2018-04-17T00:16:50.674Z,18
2018-04-17T00:17:53.483Z,18
2018-04-17T00:18:54.791Z,17.9
2018-04-17T00:19:56.126Z,17.9
2018-04-17T00:20:57.451Z,17.9
2018-04-17T00:21:58.785Z,17.9
2018-04-17T00:23:00.148Z,17.8
2018-04-17T00:24:01.495Z,17.9
2018-04-17T00:25:02.915Z,17.8
2018-04-17T00:26:04.746Z,17.8
2018-04-17T00:27:06.946Z,17.8
2018-04-17T00:28:08.989Z,17.8
2018-04-17T00:29:10.841Z,17.8
2018-04-17T00:30:12.240Z,17.8
2018-04-17T00:31:13.574Z,17.8
2018-04-17T00:32:17.587Z,17.8
2018-04-17T00:33:19.036Z,17.7
2018-04-17T00:34:20.522Z,17.7
2018-04-17T00:35:21.938Z,17.6
2018-04-17T00:36:23.384Z,17.7
2018-04-17T00:37:24.791Z,17.7
2018-04-17T00:38:26.316Z,17.6
2018-04-17T00:39:27.631Z,17.5
2018-04-17T00:40:28.979Z,17.6
2018-04-17T00:41:30.364Z,17.6
2018-04-17T00:42:31.674Z,17.6
2018-04-17T00:43:33.044Z,17.3
2018-04-17T00:44:34.392Z,17.5
2018-04-17T00:45:35.699Z,17.5
2018-04-17T00:46:37.015Z,17.5
2018-04-17T00:47:38.315Z,17.5
2018-04-17T00:48:39.821Z,17.5
2018-04-17T00:49:41.147Z,17.5
2018-04-17T00:50:42.467Z,17.4
2018-04-17T00:51:43.844Z,17.4
2018-04-17T00:52:45.195Z,17.4
2018-04-17T00:53:46.561Z,17.4
2018-04-17T00:54:47.901Z,17.4
2018-04-17T00:55:49.276Z,17.4
2018-04-17T00:56:50.658Z,17.4
2018-04-17T00:57:51.948Z,17.2
2018-04-17T00:58:53.315Z,17.3
2018-04-17T00:59:54.633Z,17.3
2018-04-17T01:00:55.966Z,17.3
2018-04-17T01:01:57.336Z,17.3
2018-04-17T01:02:58.685Z,17.3
2018-04-17T01:04:00.068Z,17.2
2018-04-17T01:05:01.497Z,17.3
2018-04-17T01:06:02.802Z,17.2
2018-04-17T01:07:04.179Z,17.2
2018-04-17T01:08:05.511Z,17.2
2018-04-17T01:09:06.864Z,17.2
2018-04-17T01:10:08.223Z,17.2
2018-04-17T01:11:10.022Z,17.2
2018-04-17T01:12:11.537Z,17.1
2018-04-17T01:13:13.355Z,17.1
2018-04-17T01:14:14.771Z,17.1
2018-04-17T01:15:16.092Z,17.1
2018-04-17T01:16:17.408Z,17.1
2018-04-17T01:17:18.733Z,17.1
2018-04-17T01:18:20.070Z,17.1
2018-04-17T01:19:21.501Z,17
2018-04-17T01:20:22.843Z,17
2018-04-17T01:21:24.193Z,17
2018-04-17T01:22:25.616Z,17
2018-04-17T01:23:26.962Z,17
2018-04-17T01:24:28.344Z,17
2018-04-17T01:25:29.713Z,17
2018-04-17T01:26:31.049Z,17
2018-04-17T01:27:32.500Z,16.9
2018-04-17T01:28:33.882Z,16.9
2018-04-17T01:29:35.304Z,16.9
2018-04-17T01:30:36.739Z,16.9
2018-04-17T01:31:38.160Z,16.9
2018-04-17T01:32:39.654Z,16.9
2018-04-17T01:33:41.040Z,16.9
2018-04-17T01:34:42.513Z,16.8
2018-04-17T01:35:43.925Z,16.8
2018-04-17T01:36:45.432Z,16.8
2018-04-17T01:37:46.767Z,16.8
2018-04-17T01:38:48.140Z,16.8
2018-04-17T01:39:49.543Z,16.8
2018-04-17T01:40:50.924Z,16.8
2018-04-17T01:41:52.268Z,16.8
2018-04-17T01:42:53.633Z,16.8
2018-04-17T01:43:54.956Z,16.7
2018-04-17T01:44:59.126Z,16.7
2018-04-17T01:46:00.486Z,16.7
2018-04-17T01:47:01.852Z,16.7
2018-04-17T01:48:03.363Z,16.7
2018-04-17T01:49:05.017Z,16.6
2018-04-17T01:50:06.720Z,16.7
2018-04-17T01:51:08.048Z,16.6
2018-04-17T01:52:09.381Z,16.6
2018-04-17T01:53:10.725Z,16.6
2018-04-17T01:54:12.105Z,16.6
2018-04-17T01:55:13.509Z,16.6
2018-04-17T01:56:14.890Z,16.6
2018-04-17T01:57:16.188Z,16.6
2018-04-17T01:58:17.526Z,16.6
2018-04-17T01:59:18.870Z,16.6
2018-04-17T02:00:20.294Z,16.6
2018-04-17T02:01:21.656Z,16.6
2018-04-17T02:02:23.007Z,16.4
2018-04-17T02:03:24.385Z,16.5
2018-04-17T02:04:25.776Z,16.5
2018-04-17T02:05:27.187Z,16.5
2018-04-17T02:06:28.522Z,16.5
2018-04-17T02:07:29.890Z,16.5
2018-04-17T02:08:31.334Z,16.5
2018-04-17T02:09:32.731Z,16.5
2018-04-17T02:10:34.241Z,16.5
2018-04-17T02:11:35.615Z,16.5
2018-04-17T02:12:36.973Z,16.4
2018-04-17T02:13:38.322Z,16.4
2018-04-17T02:14:39.697Z,16.4
2018-04-17T02:15:41.128Z,16.4
2018-04-17T02:16:42.529Z,16.2
2018-04-17T02:17:43.870Z,16.4
2018-04-17T02:18:45.208Z,16.2
2018-04-17T02:19:46.616Z,16.4
2018-04-17T02:20:48.190Z,16.3
2018-04-17T02:21:49.599Z,16.4
2018-04-17T02:22:50.969Z,16.3
2018-04-17T02:23:52.345Z,16.3
2018-04-17T02:24:53.776Z,16.3
2018-04-17T02:25:55.201Z,16.3
2018-04-17T02:26:56.544Z,16.3
2018-04-17T02:27:57.992Z,16.3
2018-04-17T02:28:59.377Z,16.3
2018-04-17T02:30:00.788Z,16.2
2018-04-17T02:31:04.173Z,16.2
2018-04-17T02:32:05.703Z,16.2
2018-04-17T02:33:07.211Z,16.2
2018-04-17T02:34:08.696Z,16.2
2018-04-17T02:35:10.136Z,16.2
2018-04-17T02:36:11.896Z,16.2
2018-04-17T02:37:13.362Z,16.1
2018-04-17T02:38:15.350Z,16.1
2018-04-17T02:39:16.820Z,16.1
2018-04-17T02:40:18.181Z,16.1
2018-04-17T02:41:19.777Z,16.1
2018-04-17T02:42:21.141Z,16.1
2018-04-17T02:43:22.556Z,16.1
2018-04-17T02:44:23.975Z,16.1
2018-04-17T02:45:25.362Z,16.1
2018-04-17T02:46:26.811Z,16
2018-04-17T02:47:28.170Z,16.1
2018-04-17T02:48:29.497Z,16
2018-04-17T02:49:30.874Z,16
2018-04-17T02:50:32.240Z,16
2018-04-17T02:51:33.667Z,16
2018-04-17T02:52:35.037Z,16
2018-04-17T02:53:36.397Z,16
2018-04-17T02:54:37.840Z,16
2018-04-17T02:55:39.257Z,16
2018-04-17T02:56:40.788Z,15.9
2018-04-17T02:57:42.339Z,15.9
2018-04-17T02:58:43.870Z,16
2018-04-17T02:59:45.611Z,16
2018-04-17T03:00:46.964Z,16
2018-04-17T03:01:48.332Z,15.9
2018-04-17T03:02:49.697Z,15.9
2018-04-17T03:03:51.042Z,15.8
2018-04-17T03:04:52.372Z,15.9
2018-04-17T03:05:53.714Z,15.9
2018-04-17T03:06:55.398Z,15.9
2018-04-17T03:07:56.726Z,15.9
2018-04-17T03:08:58.067Z,15.9
2018-04-17T03:09:59.417Z,15.9
2018-04-17T03:11:00.736Z,15.9
2018-04-17T03:12:02.179Z,15.9
2018-04-17T03:13:03.502Z,15.8
2018-04-17T03:14:04.835Z,15.8
2018-04-17T03:15:06.169Z,15.8
2018-04-17T03:16:07.527Z,15.8
2018-04-17T03:17:08.996Z,15.8
2018-04-17T03:18:10.893Z,15.7
2018-04-17T03:19:12.227Z,15.7
2018-04-17T03:20:13.538Z,15.7
2018-04-17T03:21:14.870Z,15.7
2018-04-17T03:22:16.235Z,15.7
2018-04-17T03:23:17.543Z,15.7
2018-04-17T03:24:18.906Z,15.7
2018-04-17T03:25:20.230Z,15.7
2018-04-17T03:26:24.375Z,15.7
2018-04-17T03:27:25.738Z,15.7
2018-04-17T03:28:29.800Z,15.6
2018-04-17T03:29:31.155Z,15.8
2018-04-17T03:30:32.488Z,15.8
2018-04-17T03:31:33.843Z,15.8
2018-04-17T03:32:35.233Z,15.7
2018-04-17T03:33:36.550Z,15.7
2018-04-17T03:34:37.960Z,15.6
2018-04-17T03:35:39.370Z,15.6
2018-04-17T03:36:40.794Z,15.5
2018-04-17T03:37:42.395Z,15.6
2018-04-17T03:38:43.721Z,15.6
2018-04-17T03:39:45.155Z,15.6
2018-04-17T03:40:46.552Z,15.6
2018-04-17T03:41:47.936Z,15.6
2018-04-17T03:42:49.385Z,15.4
2018-04-17T03:43:50.832Z,15.6
2018-04-17T03:44:52.178Z,15.5
2018-04-17T03:45:53.510Z,15.5
2018-04-17T03:46:54.848Z,15.4
2018-04-17T03:47:56.235Z,15.5
2018-04-17T03:48:57.563Z,15.5
2018-04-17T03:49:58.880Z,15.4
2018-04-17T03:51:00.199Z,15.4
2018-04-17T03:52:04.564Z,15.4
2018-04-17T03:53:05.930Z,15.4
2018-04-17T03:54:07.304Z,15.4
2018-04-17T03:55:08.664Z,15.4
2018-04-17T03:56:09.997Z,15.4
2018-04-17T03:57:11.336Z,15.4
2018-04-17T03:58:12.706Z,15.4
2018-04-17T03:59:14.031Z,15.4
2018-04-17T04:00:15.357Z,15.4
2018-04-17T04:01:16.788Z,15.3
2018-04-17T04:02:18.198Z,15.3
2018-04-17T04:03:19.670Z,15.1
2018-04-17T04:04:21.023Z,15.3
2018-04-17T04:05:22.380Z,15.3
2018-04-17T04:06:23.701Z,15.3
2018-04-17T04:07:25.033Z,15.3
2018-04-17T04:08:26.806Z,15.3
2018-04-17T04:09:30.479Z,15.3
2018-04-17T04:10:31.898Z,15.3
2018-04-17T04:11:33.299Z,15.3
2018-04-17T04:12:34.609Z,15.2
2018-04-17T04:13:35.971Z,15.2
2018-04-17T04:14:37.288Z,15.2
2018-04-17T04:15:38.612Z,15.2
2018-04-17T04:16:39.935Z,15.2
2018-04-17T04:17:41.266Z,15.2
2018-04-17T04:18:42.701Z,15.2
2018-04-17T04:19:44.132Z,15.2
2018-04-17T04:20:45.505Z,15.2
2018-04-17T04:21:46.843Z,15.2
2018-04-17T04:22:48.161Z,15.2
2018-04-17T04:23:49.553Z,15.2
2018-04-17T04:24:50.876Z,15
2018-04-17T04:25:52.330Z,15.1
2018-04-17T04:26:53.647Z,15.2
2018-04-17T04:27:55.007Z,15
2018-04-17T04:28:56.459Z,15.1
2018-04-17T04:29:57.842Z,15.1
2018-04-17T04:30:59.171Z,15.1
2018-04-17T04:32:00.516Z,15.1
2018-04-17T04:33:01.856Z,15.1
2018-04-17T04:34:03.250Z,15.1
2018-04-17T04:35:04.593Z,15.1
2018-04-17T04:36:05.930Z,15.1
2018-04-17T04:37:07.407Z,15.1
2018-04-17T04:38:08.765Z,15.1
2018-04-17T04:39:10.285Z,15
2018-04-17T04:40:11.804Z,15
2018-04-17T04:41:13.342Z,15
2018-04-17T04:42:16.899Z,15
2018-04-17T04:43:18.268Z,15
2018-04-17T04:44:19.778Z,15
2018-04-17T04:45:21.200Z,15
2018-04-17T04:46:22.685Z,15.1
2018-04-17T04:47:25.104Z,14.9
2018-04-17T04:48:27.768Z,15
2018-04-17T04:49:30.444Z,15
2018-04-17T04:50:31.894Z,15
2018-04-17T04:51:33.350Z,15
2018-04-17T04:52:34.927Z,15
2018-04-17T04:53:36.320Z,15
2018-04-17T04:54:37.677Z,15
2018-04-17T04:55:39.032Z,15
2018-04-17T04:56:40.354Z,15.1
2018-04-17T04:57:41.743Z,15.1
2018-04-17T04:58:43.184Z,15.1
2018-04-17T04:59:44.544Z,15.1
2018-04-17T05:00:45.944Z,15
2018-04-17T05:01:47.468Z,15
2018-04-17T05:02:48.884Z,15.1
2018-04-17T05:03:50.231Z,15.2
2018-04-17T05:04:51.693Z,15.2
2018-04-17T05:05:53.115Z,15.2
2018-04-17T05:06:54.502Z,15.2
2018-04-17T05:07:56.213Z,15.2
2018-04-17T05:08:57.694Z,15.3
2018-04-17T05:09:59.373Z,15.3
2018-04-17T05:11:00.715Z,15.2
2018-04-17T05:12:02.149Z,15.4
2018-04-17T05:13:03.716Z,15.4
2018-04-17T05:14:08.855Z,15.3
2018-04-17T05:15:10.519Z,15.4
2018-04-17T05:16:11.970Z,15.5
2018-04-17T05:17:13.311Z,15.5
2018-04-17T05:18:14.686Z,15.4
2018-04-17T05:19:16.057Z,15.6
2018-04-17T05:20:17.465Z,15.6
2018-04-17T05:21:18.810Z,15.6
2018-04-17T05:22:20.308Z,15.6
2018-04-17T05:23:21.749Z,15.7
2018-04-17T05:24:23.215Z,15.7
2018-04-17T05:25:24.677Z,15.8
2018-04-17T05:26:26.067Z,15.8
2018-04-17T05:27:27.438Z,15.9
2018-04-17T05:28:28.807Z,15.9
2018-04-17T05:29:30.263Z,15.9
2018-04-17T05:30:31.663Z,16
2018-04-17T05:31:33.140Z,16
2018-04-17T05:32:34.492Z,16.1
2018-04-17T05:33:35.855Z,16.2
2018-04-17T05:34:37.310Z,16.2
2018-04-17T05:35:38.735Z,16.2
2018-04-17T05:36:40.099Z,16.3
2018-04-17T05:37:41.453Z,16.4
2018-04-17T05:38:42.890Z,16.4
2018-04-17T05:39:44.263Z,16.5
2018-04-17T05:40:45.678Z,16.5
2018-04-17T05:41:47.029Z,16.6
2018-04-17T05:42:48.451Z,16.6
2018-04-17T05:43:50.887Z,16.5
2018-04-17T05:44:52.892Z,16.7
2018-04-17T05:45:54.418Z,16.7
2018-04-17T05:46:55.777Z,16.8
2018-04-17T05:47:57.210Z,16.8
2018-04-17T05:48:58.605Z,16.8
2018-04-17T05:50:00.078Z,16.9
2018-04-17T05:51:02.237Z,17
2018-04-17T05:52:17.880Z,17
2018-04-17T05:53:19.290Z,17.1
2018-04-17T05:54:20.864Z,17
2018-04-17T05:55:22.369Z,17.2
2018-04-17T05:56:23.858Z,17.3
2018-04-17T05:57:25.293Z,17.2
2018-04-17T05:58:26.857Z,17.4
2018-04-17T05:59:28.274Z,17.4
2018-04-17T06:00:29.740Z,17.5
2018-04-17T06:01:31.329Z,17.5
2018-04-17T06:02:33.323Z,17.6
2018-04-17T06:03:34.870Z,17.7
2018-04-17T06:04:39.607Z,17.7
2018-04-17T06:05:41.053Z,17.8
2018-04-17T06:06:43.444Z,17.9
2018-04-17T06:07:44.928Z,18
2018-04-17T06:08:46.891Z,18
2018-04-17T06:09:48.752Z,18.1
2018-04-17T06:10:51.181Z,18.2
2018-04-17T06:11:55.501Z,18.2
2018-04-17T06:12:59.328Z,18.3
2018-04-17T06:14:00.796Z,18.3
2018-04-17T06:15:04.807Z,18.5
2018-04-17T06:16:08.227Z,18.6
2018-04-17T06:17:10.100Z,18.7
2018-04-17T06:18:11.604Z,18.9
2018-04-17T06:19:13.404Z,19
2018-04-17T06:20:15.980Z,19.1
2018-04-17T06:21:18.681Z,19.2
2018-04-17T06:22:20.552Z,19.3
2018-04-17T06:23:22.482Z,19.5
2018-04-17T06:24:24.637Z,19.5
2018-04-17T06:25:29.370Z,19.5
2018-04-17T06:26:30.857Z,19.7
2018-04-17T06:27:32.760Z,19.8
2018-04-17T06:28:34.423Z,19.9
2018-04-17T06:29:38.975Z,20
2018-04-17T06:30:40.455Z,20
2018-04-17T06:31:44.805Z,19.9
2018-04-17T06:32:46.412Z,20.2
2018-04-17T06:33:49.037Z,20.3
2018-04-17T06:34:50.719Z,20.4
2018-04-17T06:35:54.768Z,20.4
2018-04-17T06:36:56.314Z,20.5
2018-04-17T06:37:59.251Z,20.5
2018-04-17T06:39:00.804Z,20.6
2018-04-17T06:40:05.392Z,20.6
2018-04-17T06:41:07.038Z,20.6
2018-04-17T06:42:08.749Z,20.8
2018-04-17T06:43:11.831Z,20.9
2018-04-17T06:44:15.797Z,20.9
2018-04-17T06:45:17.253Z,21
2018-04-17T06:46:18.956Z,21.1
2018-04-17T06:47:20.688Z,21.2
2018-04-17T06:48:24.340Z,21.2
2018-04-17T06:49:37.936Z,21.4
2018-04-17T06:50:39.663Z,21.4
2018-04-17T06:51:41.109Z,21.5
2018-04-17T06:52:42.551Z,21.6
2018-04-17T06:53:44.110Z,21.5
2018-04-17T06:54:45.564Z,21.7
2018-04-17T06:55:47.080Z,21.7
2018-04-17T06:56:48.499Z,21.8
2018-04-17T06:57:49.928Z,21.8
2018-04-17T06:58:51.361Z,21.9
2018-04-17T06:59:52.808Z,22
2018-04-17T07:00:55.083Z,22
2018-04-17T07:01:59.661Z,22.1
2018-04-17T07:03:02.923Z,22.2
2018-04-17T07:04:04.492Z,22.2
2018-04-17T07:05:08.611Z,22.3
2018-04-17T07:06:10.029Z,22.4
2018-04-17T07:07:11.652Z,22.4
2018-04-17T07:08:13.338Z,22.5
2018-04-17T07:09:15.394Z,22.4
2018-04-17T07:10:17.144Z,22.6
2018-04-17T07:11:18.863Z,22.7
2018-04-17T07:12:20.463Z,22.8
2018-04-17T07:13:22.443Z,22.8
2018-04-17T07:14:24.300Z,22.9
2018-04-17T07:15:26.085Z,22.8
2018-04-17T07:16:28.928Z,23
2018-04-17T07:17:32.207Z,23.1
2018-04-17T07:18:35.514Z,23.1
2018-04-17T07:19:39.598Z,23.1
2018-04-17T07:20:41.133Z,23.3
2018-04-17T07:21:43.040Z,23.3
2018-04-17T07:22:44.746Z,23.4
2018-04-17T07:23:48.764Z,23.5
2018-04-17T07:24:50.330Z,23.5
2018-04-17T07:25:54.383Z,23.5
2018-04-17T07:26:55.841Z,23.6
2018-04-17T07:27:57.993Z,23.7
2018-04-17T07:29:00.346Z,23.8
2018-04-17T07:30:05.030Z,23.8
2018-04-17T07:31:07.134Z,23.9
2018-04-17T07:32:08.953Z,23.8
2018-04-17T07:33:10.704Z,24
2018-04-17T07:34:14.431Z,24.1
2018-04-17T07:35:16.333Z,24.1
2018-04-17T07:36:18.617Z,24.2
2018-04-17T07:37:20.332Z,24.2
2018-04-17T07:38:25.761Z,24.2
2018-04-17T07:39:28.235Z,24.4
2018-04-17T07:40:29.982Z,24.3
2018-04-17T07:41:31.482Z,24.5
2018-04-17T07:42:39.181Z,24.4
2018-04-17T07:43:40.672Z,24.6
2018-04-17T07:44:42.109Z,24.6
2018-04-17T07:45:43.662Z,24.7
2018-04-17T07:46:45.036Z,24.7
2018-04-17T07:47:46.801Z,24.8
2018-04-17T07:48:49.106Z,24.9
2018-04-17T07:49:50.660Z,24.9
2018-04-17T07:50:53.830Z,24.8
2018-04-17T07:51:55.422Z,25
2018-04-17T07:53:01.470Z,24.9
2018-04-17T07:54:03.289Z,25.1
2018-04-17T07:55:04.990Z,25.1
2018-04-17T07:56:14.258Z,25.2
2018-04-17T07:57:15.896Z,25.2
2018-04-17T07:58:17.928Z,25.3
2018-04-17T07:59:19.400Z,25.3
2018-04-17T08:00:20.917Z,25.3
2018-04-17T08:01:22.443Z,25.4
2018-04-17T08:02:24.059Z,25.4
2018-04-17T08:03:25.582Z,25.5
2018-04-17T08:04:27.115Z,25.6
2018-04-17T08:05:29.189Z,25.7
2018-04-17T08:06:30.733Z,25.7
2018-04-17T08:07:43.699Z,25.7
2018-04-17T08:08:45.122Z,25.8
2018-04-17T08:09:46.682Z,25.8
2018-04-17T08:10:48.222Z,25.9
2018-04-17T08:11:49.695Z,26
2018-04-17T08:12:51.093Z,26
2018-04-17T08:13:58.039Z,26
2018-04-17T08:14:59.533Z,26
2018-04-17T08:16:01.097Z,25.9
2018-04-17T08:17:02.906Z,26.1
2018-04-17T08:18:12.564Z,26.1
2018-04-17T08:19:14.925Z,26.2
2018-04-17T08:20:16.398Z,26.2
2018-04-17T08:21:17.783Z,26.2
2018-04-17T08:22:19.292Z,26.3
2018-04-17T08:23:20.784Z,26.3
2018-04-17T08:24:22.165Z,26.3
2018-04-17T08:25:23.624Z,26.3
2018-04-17T08:26:25.396Z,26.4
2018-04-17T08:27:27.016Z,26.4
2018-04-17T08:28:28.545Z,26.4
2018-04-17T08:29:29.982Z,26.4
2018-04-17T08:30:31.450Z,26.4
2018-04-17T08:31:32.909Z,26.5
2018-04-17T08:32:34.563Z,26.5
2018-04-17T08:33:36.212Z,26.5
2018-04-17T08:34:40.473Z,26.5
2018-04-17T08:35:44.875Z,26.4
2018-04-17T08:36:46.411Z,26.5
2018-04-17T08:37:48.241Z,26.6
2018-04-17T08:38:49.808Z,26.6
2018-04-17T08:39:51.584Z,26.7
2018-04-17T08:40:53.738Z,26.7
2018-04-17T08:41:55.359Z,26.7
2018-04-17T08:42:58.876Z,26.7
2018-04-17T08:44:03.605Z,26.7
2018-04-17T08:45:05.265Z,26.6
2018-04-17T08:46:06.743Z,26.6
2018-04-17T08:47:09.239Z,26.6
2018-04-17T08:48:10.753Z,26.6
2018-04-17T08:49:15.112Z,26.6
2018-04-17T08:50:16.705Z,26.7
2018-04-17T08:51:21.099Z,26.7
2018-04-17T08:52:22.552Z,26.6
2018-04-17T08:53:24.361Z,26.7
2018-04-17T08:54:26.032Z,26.7
2018-04-17T08:55:31.389Z,26.6
2018-04-17T08:56:32.799Z,26.8
2018-04-17T08:57:34.478Z,26.6
2018-04-17T08:58:37.294Z,26.9
2018-04-17T08:59:39.459Z,26.8
2018-04-17T09:00:40.879Z,26.8
2018-04-17T09:01:52.489Z,26.8
2018-04-17T09:02:54.301Z,26.8
2018-04-17T09:03:55.896Z,26.8
2018-04-17T09:05:00.528Z,26.8
2018-04-17T09:06:02.040Z,26.8
2018-04-17T09:07:03.595Z,26.8
2018-04-17T09:08:05.150Z,26.7
2018-04-17T09:09:06.627Z,26.7
2018-04-17T09:10:08.098Z,26.8
2018-04-17T09:11:09.736Z,26.9
2018-04-17T09:12:11.417Z,26.9
2018-04-17T09:13:13.075Z,26.8
2018-04-17T09:14:14.658Z,26.8
2018-04-17T09:15:16.100Z,26.6
2018-04-17T09:16:23.651Z,26.6
2018-04-17T09:17:25.316Z,26.5
2018-04-17T09:18:27.039Z,26.5
2018-04-17T09:19:28.952Z,26.4
2018-04-17T09:20:30.723Z,26.4
2018-04-17T09:21:34.212Z,26.4
2018-04-17T09:22:35.841Z,26.4
2018-04-17T09:23:37.521Z,26.3
2018-04-17T09:24:39.290Z,26.4
2018-04-17T09:25:42.261Z,26.4
2018-04-17T09:26:46.032Z,26.5
2018-04-17T09:27:47.526Z,26.4
2018-04-17T09:28:49.066Z,26.5
2018-04-17T09:29:50.728Z,26.4
2018-04-17T09:30:56.699Z,26.5
2018-04-17T09:31:58.251Z,26.5
2018-04-17T09:33:04.626Z,26.5
2018-04-17T09:34:07.361Z,26.5
2018-04-17T09:35:08.863Z,26.5
2018-04-17T09:36:10.482Z,26.5
2018-04-17T09:37:17.690Z,26.5
2018-04-17T09:38:19.219Z,26.5
2018-04-17T09:39:20.881Z,26.5
2018-04-17T09:40:22.484Z,26.5
2018-04-17T09:41:24.952Z,26.5
2018-04-17T09:42:26.824Z,26.5
2018-04-17T09:43:30.481Z,26.4
2018-04-17T09:44:32.147Z,26.5
2018-04-17T09:45:33.604Z,26.4
2018-04-17T09:46:35.221Z,26.4
2018-04-17T09:47:36.737Z,26.5
2018-04-17T09:48:38.288Z,26.5
2018-04-17T09:49:40.119Z,26.4
2018-04-17T09:50:41.743Z,26.5
2018-04-17T09:51:44.146Z,26.5
2018-04-17T09:52:45.947Z,26.4
2018-04-17T09:53:50.285Z,26.4
2018-04-17T09:54:51.801Z,26.5
2018-04-17T09:55:53.422Z,26.4
2018-04-17T09:56:57.275Z,26.5
2018-04-17T09:58:00.187Z,26.4
2018-04-17T09:59:01.752Z,26.4
2018-04-17T10:00:06.238Z,26.3
2018-04-17T10:01:11.487Z,26.4
2018-04-17T10:02:13.021Z,26.4
2018-04-17T10:03:14.726Z,26.3
2018-04-17T10:04:16.073Z,26.3
2018-04-17T10:05:17.438Z,26.3
2018-04-17T10:06:19.179Z,26.2
2018-04-17T10:07:20.599Z,26.3
2018-04-17T10:08:26.161Z,26.3
2018-04-17T10:09:29.011Z,26.3
2018-04-17T10:10:30.458Z,26.3
2018-04-17T10:11:34.030Z,26.3
2018-04-17T10:12:35.814Z,26.2
2018-04-17T10:13:37.199Z,26.2
2018-04-17T10:14:38.594Z,26.3
2018-04-17T10:15:40.055Z,26.2
2018-04-17T10:16:42.307Z,26.2
2018-04-17T10:17:45.524Z,26.3
2018-04-17T10:18:47.005Z,26.1
2018-04-17T10:19:48.612Z,26.2
2018-04-17T10:20:51.507Z,26.2
2018-04-17T10:21:53.166Z,26.2
2018-04-17T10:22:57.832Z,26.2
2018-04-17T10:23:59.897Z,26.1
2018-04-17T10:25:08.580Z,26.2
2018-04-17T10:26:10.042Z,26.2
2018-04-17T10:27:11.431Z,26.2
2018-04-17T10:28:12.869Z,26.2
2018-04-17T10:29:15.832Z,26.2
2018-04-17T10:30:17.295Z,26.2
2018-04-17T10:31:19.529Z,26.2
2018-04-17T10:32:27.019Z,26.1
2018-04-17T10:33:28.611Z,26
2018-04-17T10:34:30.301Z,26
2018-04-17T10:35:37.161Z,26.2
2018-04-17T10:36:38.903Z,26.1
2018-04-17T10:37:41.908Z,26.1
2018-04-17T10:38:43.540Z,26
2018-04-17T10:39:46.041Z,26
2018-04-17T10:40:53.056Z,26
2018-04-17T10:41:54.726Z,26
2018-04-17T10:42:56.496Z,25.9
2018-04-17T10:45:09.870Z,26
2018-04-17T10:46:11.330Z,25.9
2018-04-17T10:47:12.931Z,25.9
2018-04-17T10:49:21.454Z,25.9
2018-04-17T10:50:22.909Z,25.8
2018-04-17T10:51:24.485Z,25.9
2018-04-17T10:52:25.952Z,25.8
2018-04-17T10:53:27.528Z,25.8
2018-04-17T10:54:29.111Z,25.8
2018-04-17T10:55:30.770Z,25.8
2018-04-17T10:56:34.715Z,25.8
2018-04-17T10:57:36.152Z,25.8
2018-04-17T10:58:37.571Z,25.8
2018-04-17T10:59:39.013Z,25.8
2018-04-17T11:00:40.480Z,25.8
2018-04-17T11:01:41.901Z,25.8
2018-04-17T11:02:44.504Z,25.7
2018-04-17T11:03:46.178Z,25.8
2018-04-17T11:04:47.620Z,25.8
2018-04-17T11:05:49.037Z,25.8
2018-04-17T11:06:50.484Z,25.7
2018-04-17T11:07:52.013Z,25.8
2018-04-17T11:08:53.638Z,25.7
2018-04-17T11:09:55.290Z,25.8
2018-04-17T11:10:56.884Z,25.7
2018-04-17T11:12:03.905Z,25.7
2018-04-17T11:13:05.423Z,25.6
2018-04-17T11:14:07.211Z,25.7
2018-04-17T11:15:14.264Z,25.6
2018-04-17T11:16:16.065Z,25.7
2018-04-17T11:17:17.656Z,25.5
2018-04-17T11:18:27.825Z,25.6
2018-04-17T11:19:29.396Z,25.6
2018-04-17T11:20:30.880Z,25.6
2018-04-17T11:21:32.863Z,25.6
2018-04-17T11:22:34.625Z,25.6
2018-04-17T11:23:36.155Z,25.6
2018-04-17T11:24:37.908Z,25.5
2018-04-17T11:25:39.460Z,25.5
2018-04-17T11:26:40.851Z,25.6
2018-04-17T11:27:42.251Z,25.5
2018-04-17T11:28:43.696Z,25.6
2018-04-17T11:29:52.406Z,25.6
2018-04-17T11:30:53.912Z,25.5
2018-04-17T11:31:59.041Z,25.5
2018-04-17T11:33:00.573Z,25.5
2018-04-17T11:34:02.033Z,25.5
2018-04-17T11:35:03.720Z,25.5
2018-04-17T11:36:05.406Z,25.4
2018-04-17T11:37:08.969Z,25.5
2018-04-17T11:38:10.371Z,25.5
2018-04-17T11:39:15.686Z,25.5
2018-04-17T11:40:17.234Z,25.5
2018-04-17T11:41:18.739Z,25.5
2018-04-17T11:42:22.170Z,25.5
2018-04-17T11:43:23.781Z,25.5
2018-04-17T11:44:28.021Z,25.5
2018-04-17T11:45:29.733Z,25.4
2018-04-17T11:46:31.264Z,25.5
2018-04-17T11:47:32.690Z,25.5
2018-04-17T11:48:36.403Z,25.4
2018-04-17T11:49:37.744Z,25.5
2018-04-17T11:50:39.157Z,25.5
2018-04-17T11:51:40.606Z,25.4
2018-04-17T11:52:42.077Z,25.4
2018-04-17T11:53:43.482Z,25.5
2018-04-17T11:54:46.653Z,25.5
2018-04-17T11:55:48.107Z,25.4
2018-04-17T11:56:52.603Z,25.4
2018-04-17T11:57:54.077Z,25.3
2018-04-17T11:58:58.278Z,25.4
2018-04-17T11:59:59.720Z,25.4
2018-04-17T12:01:03.911Z,25.5
2018-04-17T12:02:05.434Z,25.4
2018-04-17T12:03:06.817Z,25.4
2018-04-17T12:04:08.242Z,25.4
2018-04-17T12:05:09.655Z,25.4
2018-04-17T12:06:11.274Z,25.4
2018-04-17T12:07:12.719Z,25.3
2018-04-17T12:08:14.123Z,25.4
2018-04-17T12:09:17.405Z,25.4
2018-04-17T12:10:18.821Z,25.4
2018-04-17T12:11:20.711Z,25.4
2018-04-17T12:12:22.163Z,25.4
2018-04-17T12:13:24.296Z,25.4
2018-04-17T12:14:25.759Z,25.3
2018-04-17T12:15:31.636Z,25.4
2018-04-17T12:16:33.086Z,25.4
2018-04-17T12:17:34.564Z,25.4
2018-04-17T12:18:36.137Z,25.3
2018-04-17T12:19:39.214Z,25.3
2018-04-17T12:20:43.238Z,25.2
2018-04-17T12:21:46.125Z,25.3
2018-04-17T12:22:47.732Z,25.3
2018-04-17T12:23:49.371Z,25.2
2018-04-17T12:24:50.847Z,25.3
2018-04-17T12:25:52.332Z,25.3
2018-04-17T12:26:53.933Z,25.3
2018-04-17T12:27:55.499Z,25.3
2018-04-17T12:28:57.028Z,25.3
2018-04-17T12:29:58.560Z,25.3
2018-04-17T12:31:00.229Z,25.2
2018-04-17T12:32:03.937Z,25.2
2018-04-17T12:33:06.300Z,25.2
2018-04-17T12:34:07.791Z,25.3
2018-04-17T12:35:11.964Z,25.2
2018-04-17T12:36:13.526Z,25.2
2018-04-17T12:37:18.462Z,25.3
2018-04-17T12:38:19.915Z,25.2
2018-04-17T12:39:24.127Z,25.2
2018-04-17T12:40:25.578Z,25.2
2018-04-17T12:41:27.019Z,25.2
2018-04-17T12:42:33.160Z,25.2
2018-04-17T12:43:34.557Z,25.2
2018-04-17T12:44:38.429Z,25.2
2018-04-17T12:45:39.950Z,25.2
2018-04-17T12:46:42.231Z,25.2
2018-04-17T12:47:45.265Z,25.2
2018-04-17T12:48:46.766Z,25.2
2018-04-17T12:49:48.262Z,25.2
2018-04-17T12:50:51.798Z,25.2
2018-04-17T12:51:53.791Z,25.2
2018-04-17T12:52:55.643Z,25.2
2018-04-17T12:53:57.124Z,25.1
2018-04-17T12:54:58.525Z,25
2018-04-17T12:56:00.098Z,25.1
2018-04-17T12:57:02.668Z,25.1
2018-04-17T12:58:04.947Z,25.1
2018-04-17T12:59:06.420Z,25.1
2018-04-17T13:00:08.054Z,25
2018-04-17T13:01:09.680Z,25
2018-04-17T13:02:14.101Z,25.1
2018-04-17T13:03:19.838Z,25
2018-04-17T13:04:23.886Z,25
2018-04-17T13:05:25.394Z,25.1
2018-04-17T13:06:26.989Z,25.1
2018-04-17T13:07:28.535Z,25.1
2018-04-17T13:08:31.845Z,25
2018-04-17T13:09:33.604Z,25
2018-04-17T13:10:35.263Z,25
2018-04-17T13:11:37.283Z,25
2018-04-17T13:12:40.759Z,25.1
2018-04-17T13:13:43.044Z,25
2018-04-17T13:14:44.476Z,25.1
2018-04-17T13:15:46.324Z,25.1
2018-04-17T13:16:48.741Z,25.1
2018-04-17T13:17:50.135Z,25
2018-04-17T13:18:51.567Z,25
2018-04-17T13:19:52.937Z,25
2018-04-17T13:20:54.403Z,25
2018-04-17T13:21:55.929Z,25
2018-04-17T13:22:57.259Z,25
2018-04-17T13:24:00.223Z,25
2018-04-17T13:25:05.877Z,24.9
2018-04-17T13:26:07.399Z,24.9
2018-04-17T13:27:08.737Z,25
2018-04-17T13:28:11.008Z,25
2018-04-17T13:29:12.682Z,24.9
2018-04-17T13:30:14.101Z,25
2018-04-17T13:31:16.877Z,25
2018-04-17T13:32:22.749Z,25
2018-04-17T13:33:27.727Z,25
2018-04-17T13:34:29.439Z,24.9
2018-04-17T13:35:31.823Z,24.9
2018-04-17T13:36:33.215Z,24.9
2018-04-17T13:37:34.734Z,24.9
2018-04-17T13:38:36.144Z,24.9
2018-04-17T13:39:37.591Z,24.9
2018-04-17T13:40:38.925Z,24.8
2018-04-17T13:41:42.836Z,24.8
2018-04-17T13:42:44.307Z,24.7
2018-04-17T13:43:48.735Z,24.9
2018-04-17T13:44:51.840Z,24.8
2018-04-17T13:45:59.031Z,24.9
2018-04-17T13:47:02.437Z,24.9
2018-04-17T13:48:10.045Z,24.9
2018-04-17T13:49:11.514Z,24.9
2018-04-17T13:50:15.454Z,24.9
2018-04-17T13:51:18.918Z,24.9
2018-04-17T13:52:20.349Z,24.8
2018-04-17T13:53:24.728Z,24.9
2018-04-17T13:54:26.254Z,24.9